首页
METAR-TAF:

METAR-TAF

机场 :

Fort St. John, 不列颠哥伦比亚, 加拿大

纬度: 56-14N, 经度: 120-44W, 海拔: 695米

当前天气观测

该预报发布于1小时和11分钟前的23:00 UTC
风速4节,风向
温度 -6°C
湿度 73%
气压 1019 hPa
能見度: 48.3公里
少量云层高于8000英尺
散云层高于21000英尺

METAR: CYXJ 092300Z 17004KT 30SM FEW080 SCT210 M06/M10 A3008 RMK AC2CI1 SLP235

时间: 17:11 (00:11 UTC)

预报

该预报发布于5小时和33分钟前的18:38 UTC
预报有效从09日的 19点(UTC)到 10日的 07点(UTC)
风速3节,风向多变
能見度: 10公里
多云层高于8000英尺
多云层高于20000英尺

TAF: CYXJ 091838Z 0919/1007 VRB03KT P6SM BKN080 BKN200 RMK NXT FCST BY 100100Z

超过4000个机场的气象观测和天气预报(METAR&TAF报告)。

可查询的气象台以黄色和红色小点在地图上表示。

将鼠标移到小点上方,可查看气象台名称。

然后点击查看天气观测和预报。

如需切换地图:点击带黑十字的绿色按钮放大地图;点击带横线的绿色按钮缩小地图;或者点击绿色箭头查看邻近地区的地图。


METAR-TAF: